Latest Coastal Weather Observations for Norah Head

IDN60701

Issued at 3:02 am EST Thursday 29 September 2016 (issued every 10 minutes, with the page automatically refreshed every 10 minutes)

About coastal observations | Map of coastal stations | Coastal observations for NSW | Marine services | Other Formats
Station Details ID: 061366 Name: NORAH HEAD AWS Lat: -33.28 Lon: 151.58 Height: 18.8 m
Data from the previous 72 hours. | See also: Recent months at Norah Head
Date/Time
EST
Temp
°C
Wind Pressure Rain since
9am
mm
Weather Cloud Vis
km
Sea
Height
m
Swell
Dir  Spd
kts
Gust
kts
hPa Trend Height
m
Period
s
Dir
29/03:00am 15.7 N 16 19 1005.2 - 0.0 - - - - - - -
29/02:30am 16.3 N 17 22 1005.7 - 0.0 - - - - - - -
29/02:00am 16.8 NNE 25 29 1005.7 - 0.0 - - - - - - -
29/01:30am 17.3 NNE 25 29 1006.3 - 0.0 - - - - - - -
29/01:00am 17.3 NNE 25 28 1006.9 - 0.0 - - - - - - -
29/12:30am 17.2 NNE 22 25 1007.5 - 0.0 - - - - - - -
29/12:00am 17.5 NNE 21 24 1008.1 - 0.0 - - - - - - -
 
Date/Time
EST
Temp
°C
Wind Pressure Rain since
9am
mm
Weather Cloud Vis
km
Sea
Height
m
Swell
Dir  Spd
kts
Gust
kts
hPa Trend Height
m
Period
s
Dir
28/11:30pm 17.1 NNE 16 22 1008.9 - 0.0 - - - - - - -
28/11:28pm 16.8 NNE 15 22 1008.9 - 0.0 - - - - - - -
28/11:00pm 16.1 N 11 12 1009.4 - 0.0 - - - - - - -
28/10:30pm 16.7 N 13 17 1009.8 - 0.0 - - - - - - -
28/10:00pm 17.7 NNE 18 23 1009.7 - 0.0 - - - - - - -
28/09:30pm 17.6 NNE 18 24 1010.2 - 0.0 - - - - - - -
28/09:00pm 17.5 NE 16 18 1010.4 - 0.0 - - - - - - -
28/08:30pm 17.3 NE 15 17 1010.7 - 0.0 - - - - - - -
28/08:00pm 17.4 NE 15 18 1010.7 - 0.0 - - - - - - -
28/07:30pm 17.1 NE 13 16 1010.6 - 0.0 - - - - - - -
28/07:00pm 16.7 NE 11 13 1010.5 - 0.0 - - - - - - -
28/06:30pm 17.2 ENE 9 11 1010.6 - 0.0 - - - - - - -
28/06:00pm 17.5 ENE 9 11 1010.3 - 0.0 - - - - - - -
28/05:30pm 17.7 E 9 11 1010.3 - 0.0 - - - - - - -
28/05:00pm 18.0 E 9 11 1010.2 - 0.0 - - - - - - -
28/04:30pm 18.3 E 7 10 1010.4 - 0.0 - - - - - - -
28/04:00pm 18.5 ESE 8 9 1010.6 - 0.0 - - - - - - -
28/03:30pm 18.8 SE 9 10 1010.7 - 0.0 - - - - - - -
28/03:00pm 19.6 SE 10 11 1011.1 - 0.0 - - - - - - -
28/02:30pm 19.9 SE 9 10 1011.5 - 0.0 - - - - - - -
28/02:00pm 20.0 SE 9 10 1011.9 - 0.0 - - - - - - -
28/01:30pm 20.3 SSE 9 11 1012.4 - 0.0 - - - - - - -
28/01:00pm 20.4 SSE 8 10 1012.8 - 0.0 - - - - - - -
28/12:30pm 20.1 SSE 8 9 1013.1 - 0.0 - - - - - - -
28/12:00pm 20.1 S 7 8 1013.5 - 0.0 - - - - - - -
28/11:30am 19.6 S 6 8 1013.8 - 0.0 - - - - - - -
28/11:00am 18.5 SSW 4 6 1014.0 - 0.0 - - - - - - -
28/10:30am 18.2 SSW 5 8 1014.1 - 0.0 - - - - - - -
28/10:00am 17.5 SSW 4 8 1014.2 - 0.0 - - - - - - -
28/09:30am 17.3 SSW 7 10 1014.3 - 0.0 - - - - - - -
28/09:00am 16.6 WSW 5 8 1014.4 - 0.0 - - - - - - -
28/08:30am 15.9 SW 5 9 1014.4 - 0.0 - - - - - - -
28/08:00am 14.6 SW 6 9 1014.3 - 0.0 - - - - - - -
28/07:30am 13.5 W 4 7 1014.4 - 0.0 - - - - - - -
28/07:00am 12.5 W 5 9 1014.1 - 0.0 - - - - - - -
28/06:30am 11.4 W 4 7 1013.8 - 0.0 - - - - - - -
28/06:00am 10.6 W 5 7 1013.6 - 0.0 - - - - - - -
28/05:30am 10.3 W 5 7 1013.4 - 0.0 - - - - - - -
28/05:00am 10.6 W 5 6 1013.2 - 0.0 - - - - - - -
28/04:30am 10.7 W 5 7 1013.3 - 0.0 - - - - - - -
28/04:00am 10.7 W 5 7 1013.1 - 0.0 - - - - - - -
28/03:30am 11.1 W 5 8 1012.8 - 0.0 - - - - - - -
28/03:00am 11.2 W 5 8 1012.7 - 0.0 - - - - - - -
28/02:30am 11.4 W 5 7 1012.7 - 0.0 - - - - - - -
28/02:00am 11.5 W 5 8 1012.7 - 0.0 - - - - - - -
28/01:30am 11.7 W 5 7 1012.8 - 0.0 - - - - - - -
28/01:00am 12.2 W 5 7 1012.9 - 0.0 - - - - - - -
28/12:30am 12.3 W 5 7 1013.1 - 0.0 - - - - - - -
28/12:00am 12.8 W 3 5 1013.0 - 0.0 - - - - - - -
 
Date/Time
EST
Temp
°C
Wind Pressure Rain since
9am
mm
Weather Cloud Vis
km
Sea
Height
m
Swell
Dir  Spd
kts
Gust
kts
hPa Trend Height
m
Period
s
Dir
27/11:30pm 12.8 W 4 5 1013.1 - 0.0 - - - - - - -
27/11:00pm 13.1 W 4 7 1013.0 - 0.0 - - - - - - -
27/10:30pm 13.7 WSW 5 8 1012.8 - 0.0 - - - - - - -
27/10:00pm 13.8 WSW 5 9 1012.5 - 0.0 - - - - - - -
27/09:30pm 14.3 WSW 6 9 1012.5 - 0.0 - - - - - - -
27/09:00pm 14.4 WSW 5 7 1012.3 - 0.0 - - - - - - -
27/08:30pm 15.1 WSW 6 10 1012.1 - 0.0 - - - - - - -
27/08:00pm 15.8 WSW 8 12 1011.8 - 0.0 - - - - - - -
27/07:30pm 16.0 SW 6 11 1011.5 - 0.0 - - - - - - -
27/07:00pm 16.6 SW 7 10 1010.9 - 0.0 - - - - - - -
27/06:30pm 17.3 SW 8 13 1010.2 - 0.0 - - - - - - -
27/06:00pm 18.1 SW 17 22 1009.6 - 0.0 - - - - - - -
27/05:47pm 18.2 SSW 16 24 1009.2 - 0.0 - - - - - - -
27/05:30pm 19.2 W 8 13 1008.9 - 0.0 - - - - - - -
27/05:00pm 19.6 WSW 9 15 1008.2 - 0.0 - - - - - - -
27/04:30pm 20.4 SW 13 20 1007.2 - 0.0 - - - - - - -
27/04:00pm 21.2 SW 14 24 1006.4 - 0.0 - - - - - - -
27/03:30pm 21.9 SW 13 22 1005.9 - 0.0 - - - - - - -
27/03:00pm 23.8 W 7 13 1005.4 - 0.0 - - - - - - -
27/02:30pm 23.1 WSW 9 19 1005.4 - 0.0 - - - - - - -
27/02:00pm 23.2 WSW 11 23 1005.3 - 0.0 - - - - - - -
27/01:30pm 23.7 W 9 18 1005.3 - 0.0 - - - - - - -
27/01:00pm 23.7 WNW 7 17 1005.4 - 0.0 - - - - - - -
27/12:30pm 23.8 WNW 9 19 1005.7 - 0.0 - - - - - - -
27/12:00pm 22.3 NW 7 11 1006.2 - 0.0 - - - - - - -
27/11:30am 23.0 NNW 8 14 1007.0 - 0.0 - - - - - - -
27/11:00am 22.4 NW 7 13 1007.9 - 0.0 - - - - - - -
27/10:30am 22.0 NW 7 11 1008.6 - 0.0 - - - - - - -
27/10:00am 20.8 NNW 7 13 1009.3 - 0.0 - - - - - - -
27/09:30am 20.0 NNE 7 8 1009.8 - 0.0 - - - - - - -
27/09:00am 18.0 N 7 9 1010.6 - 0.0 - - - - - - -
27/08:30am 14.9 NNW 7 9 1011.1 - 0.0 - - - - - - -
27/08:00am 14.0 NW 3 5 1011.4 - 0.0 - - - - - - -
27/07:30am 13.6 WNW 4 7 1011.7 - 0.0 - - - - - - -
27/07:00am 13.6 WNW 4 8 1011.7 - 0.0 - - - - - - -
27/06:30am 14.1 WNW 4 6 1011.8 - 0.0 - - - - - - -
27/06:00am 12.9 NW 3 7 1011.9 - 0.0 - - - - - - -
27/05:30am 12.0 WNW 3 6 1011.9 - 0.0 - - - - - - -
27/05:00am 11.8 NW 4 6 1011.7 - 0.0 - - - - - - -
27/04:30am 11.8 NW 5 7 1011.8 - 0.0 - - - - - - -
27/04:00am 11.9 WNW 5 10 1011.8 - 0.0 - - - - - - -
27/03:30am 11.8 WNW 5 10 1011.8 - 0.0 - - - - - - -
27/03:00am 11.7 WNW 6 12 1011.8 - 0.0 - - - - - - -
27/02:30am 11.9 WNW 5 9 1011.6 - 0.0 - - - - - - -
27/02:00am 11.8 WNW 4 7 1011.7 - 0.0 - - - - - - -
27/01:30am 12.0 WNW 5 7 1011.9 - 0.0 - - - - - - -
27/01:00am 12.5 WNW 5 7 1012.2 - 0.0 - - - - - - -
27/12:30am 12.5 WNW 4 8 1012.6 - 0.0 - - - - - - -
27/12:00am 12.6 WNW 5 9 1012.8 - 0.0 - - - - - - -
 
Date/Time
EST
Temp
°C
Wind Pressure Rain since
9am
mm
Weather Cloud Vis
km
Sea
Height
m
Swell
Dir  Spd
kts
Gust
kts
hPa Trend Height
m
Period
s
Dir
26/11:30pm 13.1 WNW 4 7 1012.9 - 0.0 - - - - - - -
26/11:00pm 13.7 W 4 7 1012.9 - 0.0 - - - - - - -
26/10:30pm 14.0 WNW 4 7 1012.9 - 0.0 - - - - - - -
26/10:00pm 14.7 W 5 8 1012.9 - 0.0 - - - - - - -
26/09:30pm 14.8 WSW 4 7 1012.9 - 0.0 - - - - - - -
26/09:00pm 15.2 W 5 7 1012.7 - 0.0 - - - - - - -
26/08:30pm 15.9 WSW 5 7 1012.4 - 0.0 - - - - - - -
26/08:00pm 16.1 W 5 6 1012.4 - 0.0 - - - - - - -
26/07:30pm 16.1 WSW 5 7 1012.0 - 0.0 - - - - - - -
26/07:00pm 17.1 SSW 9 14 1011.5 - 0.0 - - - - - - -
26/06:30pm 16.8 S 7 10 1010.9 - 0.0 - - - - - - -
26/06:00pm 16.8 S 6 7 1010.5 - 0.0 - - - - - - -
26/05:30pm 16.6 S 6 8 1009.6 - 0.0 - - - - - - -
26/05:00pm 17.0 SSE 7 9 1009.2 - 0.0 - - - - - - -
26/04:30pm 17.3 SE 7 9 1008.9 - 0.0 - - - - - - -
26/04:00pm 17.7 SE 9 13 1008.6 - 0.0 - - - - - - -
26/03:30pm 18.3 SE 9 11 1008.7 - 0.0 - - - - - - -
26/03:00pm 18.8 SE 8 10 1008.9 - 0.0 - - - - - - -
26/02:30pm 19.1 SE 10 12 1009.1 - 0.0 - - - - - - -
26/02:00pm 19.2 SE 8 10 1009.4 - 0.0 - - - - - - -
26/01:30pm 19.1 SE 8 10 1009.8 - 0.0 - - - - - - -
26/01:00pm 19.1 ESE 6 9 1010.3 - 0.0 - - - - - - -
26/12:30pm 19.6 SSE 6 8 1010.6 - 0.0 - - - - - - -
26/12:00pm 18.5 ESE 6 7 1011.1 - 0.0 - - - - - - -
26/11:30am 19.1 SSE 6 7 1011.3 - 0.0 - - - - - - -
26/11:00am 17.7 E 1 3 1011.8 - 0.0 - - - - - - -
26/10:30am 18.0 ESE 2 5 1012.2 - 0.0 - - - - - - -
26/10:00am 17.4 SW 2 7 1012.5 - 0.0 - - - - - - -
26/09:30am 17.1 SSW 3 6 1012.9 - 0.0 - - - - - - -
26/09:00am 16.0 SSW 5 9 1013.0 - 1.2 - - - - - - -
26/08:30am 15.0 SSW 8 11 1013.2 - 1.2 - - - - - - -
26/08:00am 14.4 SW 7 11 1013.1 - 1.2 - - - - - - -
26/07:30am 14.1 WSW 4 8 1013.1 - 1.2 - - - - - - -
26/07:00am 13.9 WSW 6 9 1013.0 - 1.2 - - - - - - -
26/06:30am 13.4 WSW 5 8 1012.6 - 1.2 - - - - - - -
26/06:00am 12.8 WSW 6 9 1012.6 - 1.2 - - - - - - -
26/05:30am 12.9 W 4 7 1012.2 - 1.2 - - - - - - -
26/05:00am 13.1 WSW 6 9 1012.1 - 1.2 - - - - - - -
26/04:30am 13.3 WSW 6 10 1011.8 - 1.2 - - - - - - -
26/04:00am 13.0 W 6 9 1011.6 - 1.2 - - - - - - -
26/03:30am 13.1 W 5 8 1011.3 - 1.2 - - - - - - -

Other Formats:

Comma delimited format used in spreadsheet applications
http://www.bom.gov.au/fwo/IDN60701/IDN60701.95770.axf

JavaScript Object Notation format (JSON) in row-major order
http://www.bom.gov.au/fwo/IDN60701/IDN60701.95770.json